createdAt,value
2022-10-05T00:00:53.375Z,6.13
2022-10-05T00:03:22.573Z,5.68
2022-10-05T00:05:51.161Z,5.07
2022-10-05T00:08:20.677Z,5.50
2022-10-05T00:10:49.239Z,5.47
2022-10-05T00:13:18.897Z,5.68
2022-10-05T00:15:47.205Z,5.35
2022-10-05T00:18:18.082Z,5.63
2022-10-05T00:20:46.843Z,5.53
2022-10-05T00:23:16.976Z,5.85
2022-10-05T00:25:45.278Z,5.75
2022-10-05T00:28:18.031Z,5.72
2022-10-05T00:30:46.698Z,5.63
2022-10-05T00:33:15.032Z,5.60
2022-10-05T00:35:44.682Z,5.90
2022-10-05T00:38:12.981Z,6.15
2022-10-05T00:40:47.405Z,5.70
2022-10-05T00:43:42.972Z,6.10
2022-10-05T00:46:13.976Z,6.22
2022-10-05T00:48:47.731Z,6.18
2022-10-05T00:51:23.936Z,6.57
2022-10-05T00:53:56.516Z,6.40
2022-10-05T00:56:37.677Z,6.35
2022-10-05T00:59:12.135Z,6.78
2022-10-05T01:01:44.419Z,7.18
2022-10-05T01:04:17.953Z,7.13
2022-10-05T01:06:53.478Z,6.97
2022-10-05T01:09:28.043Z,7.38
2022-10-05T01:11:59.652Z,6.97
2022-10-05T01:14:30.939Z,7.22
2022-10-05T01:17:01.087Z,7.22
2022-10-05T01:19:36.371Z,7.28
2022-10-05T01:22:09.270Z,7.25
2022-10-05T01:24:46.515Z,7.65
2022-10-05T01:27:23.161Z,7.32
2022-10-05T01:29:56.572Z,7.63
2022-10-05T01:32:28.682Z,7.38
2022-10-05T01:35:01.042Z,6.68
2022-10-05T01:37:32.250Z,7.03
2022-10-05T01:40:08.151Z,6.88
2022-10-05T01:42:44.593Z,7.68
2022-10-05T01:45:19.572Z,6.82
2022-10-05T01:47:48.965Z,7.30
2022-10-05T01:50:21.132Z,6.97
2022-10-05T01:52:55.025Z,6.28
2022-10-05T01:55:27.027Z,6.35
2022-10-05T01:58:00.102Z,6.53
2022-10-05T02:00:30.504Z,6.93
2022-10-05T02:03:01.191Z,6.88
2022-10-05T02:05:33.520Z,6.80
2022-10-05T02:08:02.916Z,5.80
2022-10-05T02:10:33.614Z,6.25
2022-10-05T02:13:03.702Z,6.90
2022-10-05T02:15:36.996Z,6.57
2022-10-05T02:18:08.763Z,6.00
2022-10-05T02:20:39.144Z,6.75
2022-10-05T02:23:09.980Z,6.68
2022-10-05T02:25:40.012Z,6.53
2022-10-05T02:28:11.806Z,6.97
2022-10-05T02:30:45.000Z,6.70
2022-10-05T02:33:19.395Z,7.25
2022-10-05T02:35:48.324Z,6.03
2022-10-05T02:38:21.163Z,6.97
2022-10-05T02:40:55.524Z,7.55
2022-10-05T02:43:29.277Z,5.90
2022-10-05T02:46:03.130Z,6.20
2022-10-05T02:48:37.108Z,6.78
2022-10-05T02:51:11.837Z,6.45
2022-10-05T02:53:45.423Z,6.68
2022-10-05T02:56:18.376Z,6.35
2022-10-05T02:58:49.643Z,6.68
2022-10-05T03:01:24.337Z,6.05
2022-10-05T03:03:57.606Z,6.53
2022-10-05T03:06:28.611Z,6.55
2022-10-05T03:09:01.596Z,6.53
2022-10-05T03:11:37.079Z,6.47
2022-10-05T03:14:10.105Z,6.25
2022-10-05T03:16:46.572Z,6.30
2022-10-05T03:19:23.674Z,6.70
2022-10-05T03:21:57.033Z,5.50
2022-10-05T03:24:41.211Z,6.50
2022-10-05T03:27:16.045Z,6.63
2022-10-05T03:29:47.884Z,6.28
2022-10-05T03:32:21.622Z,6.00
2022-10-05T03:34:52.443Z,6.03
2022-10-05T03:37:24.509Z,6.65
2022-10-05T03:39:55.270Z,6.55
2022-10-05T03:42:26.455Z,6.65
2022-10-05T03:44:58.564Z,7.05
2022-10-05T03:47:34.272Z,5.55
2022-10-05T03:50:25.220Z,6.47
2022-10-05T03:52:57.524Z,6.57
2022-10-05T03:55:30.212Z,7.00
2022-10-05T03:58:01.495Z,6.22
2022-10-05T04:00:32.217Z,5.95
2022-10-05T04:03:07.296Z,7.10
2022-10-05T04:05:38.257Z,7.72
2022-10-05T04:08:09.277Z,8.80
2022-10-05T04:10:41.509Z,8.95
2022-10-05T04:13:14.643Z,8.40
2022-10-05T04:15:45.879Z,8.85
2022-10-05T04:18:20.777Z,9.43
2022-10-05T04:20:52.274Z,9.68
2022-10-05T04:23:24.974Z,10.95
2022-10-05T04:25:54.645Z,11.43
2022-10-05T04:28:31.939Z,12.30
2022-10-05T04:31:02.106Z,12.32
2022-10-05T04:33:33.274Z,11.82
2022-10-05T04:36:09.875Z,12.32
2022-10-05T04:38:56.177Z,12.48
2022-10-05T04:41:36.950Z,13.32
2022-10-05T04:44:15.072Z,13.32
2022-10-05T04:46:50.725Z,12.75
2022-10-05T04:49:29.168Z,13.15
2022-10-05T04:52:02.506Z,12.82
2022-10-05T04:54:37.667Z,13.45
2022-10-05T04:57:09.177Z,13.18
2022-10-05T04:59:46.547Z,12.57
2022-10-05T05:02:18.817Z,12.32
2022-10-05T05:04:56.895Z,16.88
2022-10-05T05:07:30.447Z,13.75
2022-10-05T05:10:14.050Z,11.88
2022-10-05T05:12:47.195Z,14.15
2022-10-05T05:15:24.070Z,13.02
2022-10-05T05:18:02.186Z,14.23
2022-10-05T05:20:38.565Z,13.05
2022-10-05T05:23:12.298Z,14.48
2022-10-05T05:25:44.621Z,12.50
2022-10-05T05:28:18.481Z,12.75
2022-10-05T05:30:50.047Z,12.63
2022-10-05T05:33:21.416Z,12.70
2022-10-05T05:36:02.900Z,12.95
2022-10-05T05:38:33.284Z,11.73
2022-10-05T05:41:09.099Z,12.50
2022-10-05T05:43:52.984Z,11.57
2022-10-05T05:46:34.202Z,13.13
2022-10-05T05:49:17.339Z,12.30
2022-10-05T05:51:51.903Z,12.32
2022-10-05T05:54:24.507Z,12.68
2022-10-05T05:56:55.560Z,12.65
2022-10-05T05:59:27.238Z,12.73
2022-10-05T06:01:58.301Z,12.32
2022-10-05T06:04:28.377Z,13.35
2022-10-05T06:07:00.067Z,12.55
2022-10-05T06:09:32.725Z,12.20
2022-10-05T06:12:11.982Z,12.13
2022-10-05T06:14:43.872Z,12.85
2022-10-05T06:17:14.073Z,13.55
2022-10-05T06:19:44.289Z,13.23
2022-10-05T06:22:17.144Z,13.50
2022-10-05T06:24:55.088Z,12.55
2022-10-05T06:27:26.969Z,12.55
2022-10-05T06:30:10.367Z,13.85
2022-10-05T06:32:59.318Z,13.40
2022-10-05T06:35:35.255Z,13.43
2022-10-05T06:38:12.854Z,12.25
2022-10-05T06:40:47.404Z,12.23
2022-10-05T06:43:22.981Z,13.55
2022-10-05T06:46:12.091Z,12.15
2022-10-05T06:49:12.396Z,12.63
2022-10-05T06:52:11.210Z,11.95
2022-10-05T06:54:53.380Z,12.57
2022-10-05T06:57:36.240Z,12.02
2022-10-05T07:00:07.379Z,10.80
2022-10-05T07:02:41.010Z,11.90
2022-10-05T07:05:25.554Z,11.20
2022-10-05T07:07:56.156Z,13.15
2022-10-05T07:10:31.007Z,13.40
2022-10-05T07:13:07.453Z,11.20
2022-10-05T07:15:43.666Z,12.10
2022-10-05T07:18:31.978Z,11.60
2022-10-05T07:21:02.973Z,12.52
2022-10-05T07:23:39.882Z,10.88
2022-10-05T07:26:11.507Z,10.75
2022-10-05T07:28:46.161Z,11.10
2022-10-05T07:31:18.845Z,11.13
2022-10-05T07:33:49.442Z,10.52
2022-10-05T07:36:39.003Z,10.75
2022-10-05T07:39:11.310Z,11.27
2022-10-05T07:41:45.901Z,11.85
2022-10-05T07:44:16.951Z,11.45
2022-10-05T07:46:52.460Z,11.32
2022-10-05T07:49:25.070Z,12.30
2022-10-05T07:51:56.302Z,12.63
2022-10-05T07:54:26.884Z,12.93
2022-10-05T07:57:03.276Z,12.95
2022-10-05T07:59:33.540Z,12.45
2022-10-05T08:02:06.299Z,12.25
2022-10-05T08:04:41.693Z,12.32
2022-10-05T08:07:14.213Z,12.80
2022-10-05T08:09:45.406Z,14.20
2022-10-05T08:12:23.679Z,14.93
2022-10-05T08:14:54.949Z,14.50
2022-10-05T08:17:27.771Z,15.05
2022-10-05T08:20:00.357Z,14.77
2022-10-05T08:22:31.470Z,15.23
2022-10-05T08:25:00.768Z,14.80
2022-10-05T08:27:34.880Z,14.90
2022-10-05T08:30:04.483Z,14.45
2022-10-05T08:32:35.564Z,16.85
2022-10-05T08:35:09.624Z,15.43
2022-10-05T08:37:40.965Z,17.02
2022-10-05T08:40:21.833Z,15.43
2022-10-05T08:43:01.538Z,15.75
2022-10-05T08:45:48.135Z,16.52
2022-10-05T08:48:37.472Z,16.02
2022-10-05T08:51:22.948Z,16.00
2022-10-05T08:54:05.334Z,16.60
2022-10-05T08:56:39.757Z,15.40
2022-10-05T08:59:22.945Z,16.40
2022-10-05T09:02:10.577Z,15.45
2022-10-05T09:04:45.277Z,15.90
2022-10-05T09:07:22.647Z,15.40
2022-10-05T09:10:24.232Z,15.15
2022-10-05T09:13:06.757Z,15.95
2022-10-05T09:15:40.536Z,16.23
2022-10-05T09:18:30.070Z,15.77
2022-10-05T09:21:00.553Z,15.30
2022-10-05T09:23:36.069Z,15.77
2022-10-05T09:26:09.169Z,15.32
2022-10-05T09:28:45.713Z,14.80
2022-10-05T09:31:30.127Z,14.90
2022-10-05T09:34:12.733Z,13.45
2022-10-05T09:36:56.045Z,14.82
2022-10-05T09:39:45.447Z,14.13
2022-10-05T09:42:19.739Z,14.25
2022-10-05T09:45:01.747Z,12.65
2022-10-05T09:47:36.929Z,12.38
2022-10-05T09:50:23.221Z,12.07
2022-10-05T09:53:05.876Z,11.73
2022-10-05T09:55:53.431Z,10.30
2022-10-05T09:58:39.402Z,10.93
2022-10-05T10:01:32.650Z,10.82
2022-10-05T10:04:14.306Z,11.02
2022-10-05T10:07:04.955Z,9.48
2022-10-05T10:09:39.987Z,9.43
2022-10-05T10:12:19.371Z,9.98
2022-10-05T10:15:05.403Z,10.82
2022-10-05T10:17:55.436Z,10.93
2022-10-05T10:20:32.069Z,10.88
2022-10-05T10:23:06.695Z,11.73
2022-10-05T10:25:45.063Z,11.57
2022-10-05T10:28:20.398Z,12.02
2022-10-05T10:30:57.121Z,13.43
2022-10-05T10:33:41.836Z,13.43
2022-10-05T10:36:12.946Z,14.15
2022-10-05T10:38:42.219Z,15.65
2022-10-05T10:41:19.526Z,14.75
2022-10-05T10:44:07.608Z,14.63
2022-10-05T10:46:41.285Z,13.68
2022-10-05T10:49:24.765Z,15.07
2022-10-05T10:52:04.940Z,13.90
2022-10-05T10:54:44.167Z,13.40
2022-10-05T10:57:16.115Z,11.80
2022-10-05T11:00:02.890Z,12.98
2022-10-05T11:02:42.775Z,11.93
2022-10-05T11:05:31.941Z,11.32
2022-10-05T11:08:12.530Z,9.15
2022-10-05T11:11:01.950Z,8.70
2022-10-05T11:13:38.787Z,8.18
2022-10-05T11:16:40.371Z,7.40
2022-10-05T11:19:39.997Z,7.50
2022-10-05T11:22:31.238Z,5.75
2022-10-05T11:25:02.928Z,6.28
2022-10-05T11:27:46.085Z,6.10
2022-10-05T11:30:29.317Z,5.20
2022-10-05T11:33:13.964Z,5.75
2022-10-05T11:35:57.050Z,5.40
2022-10-05T11:38:36.701Z,4.85
2022-10-05T11:41:25.471Z,5.43
2022-10-05T11:44:16.409Z,4.65
2022-10-05T11:46:49.949Z,4.35
2022-10-05T11:49:34.279Z,4.50
2022-10-05T11:52:07.765Z,4.60
2022-10-05T11:55:09.426Z,4.13
2022-10-05T11:57:34.253Z,3.85
2022-10-05T12:00:07.049Z,3.72
2022-10-05T12:02:53.150Z,3.67
2022-10-05T12:05:25.618Z,3.55
2022-10-05T12:07:59.836Z,3.60
2022-10-05T12:10:32.725Z,3.42
2022-10-05T12:13:09.667Z,3.60
2022-10-05T12:15:41.138Z,3.47
2022-10-05T12:18:13.396Z,3.40
2022-10-05T12:20:48.543Z,3.03
2022-10-05T12:23:19.655Z,3.47
2022-10-05T12:25:49.654Z,3.33
2022-10-05T12:28:21.411Z,4.05
2022-10-05T12:31:01.920Z,3.03
2022-10-05T12:33:34.739Z,2.80
2022-10-05T12:36:07.259Z,3.50
2022-10-05T12:38:39.688Z,3.33
2022-10-05T12:41:13.489Z,3.53
2022-10-05T12:43:48.844Z,3.10
2022-10-05T12:46:21.312Z,3.38
2022-10-05T12:49:04.736Z,3.20
2022-10-05T12:51:39.247Z,3.25
2022-10-05T12:54:13.661Z,3.60
2022-10-05T12:56:45.292Z,3.47
2022-10-05T12:59:21.248Z,3.40
2022-10-05T13:01:54.630Z,3.50
2022-10-05T13:04:28.645Z,3.40
2022-10-05T13:07:08.620Z,3.50
2022-10-05T13:09:41.561Z,3.50
2022-10-05T13:12:13.672Z,3.58
2022-10-05T13:14:47.523Z,3.50
2022-10-05T13:17:19.307Z,3.80
2022-10-05T13:19:48.430Z,3.25
2022-10-05T13:22:27.308Z,4.13
2022-10-05T13:25:00.446Z,3.53
2022-10-05T13:27:31.069Z,3.65
2022-10-05T13:30:02.692Z,3.63
2022-10-05T13:32:35.675Z,3.30
2022-10-05T13:35:11.523Z,3.13
2022-10-05T13:37:46.791Z,3.38
2022-10-05T13:40:18.802Z,3.65
2022-10-05T13:42:48.957Z,3.13
2022-10-05T13:45:21.421Z,3.45
2022-10-05T13:48:03.899Z,3.28
2022-10-05T13:50:34.696Z,3.35
2022-10-05T13:53:12.776Z,3.35
2022-10-05T13:55:44.875Z,3.88
2022-10-05T13:58:17.560Z,3.70
2022-10-05T14:00:48.571Z,3.58
2022-10-05T14:03:27.832Z,3.80
2022-10-05T14:05:57.635Z,4.22
2022-10-05T14:08:29.245Z,4.45
2022-10-05T14:10:58.209Z,3.92
2022-10-05T14:13:27.552Z,3.92
2022-10-05T14:16:04.366Z,4.07
2022-10-05T14:18:34.002Z,3.88
2022-10-05T14:21:03.793Z,4.05
2022-10-05T14:23:33.617Z,4.32
2022-10-05T14:26:04.476Z,4.78
2022-10-05T14:28:34.319Z,5.13
2022-10-05T14:31:03.880Z,4.80
2022-10-05T14:33:32.954Z,4.20
2022-10-05T14:36:02.399Z,4.45
2022-10-05T14:38:31.478Z,4.80
2022-10-05T14:41:17.186Z,4.30
2022-10-05T14:43:56.791Z,4.65
2022-10-05T14:46:27.852Z,3.95
2022-10-05T14:49:12.165Z,4.97
2022-10-05T14:51:42.170Z,4.07
2022-10-05T14:54:25.111Z,3.70
2022-10-05T14:56:59.907Z,4.53
2022-10-05T14:59:36.970Z,3.95
2022-10-05T15:02:15.678Z,4.25
2022-10-05T15:04:46.638Z,4.15
2022-10-05T15:07:19.973Z,3.88
2022-10-05T15:09:56.760Z,5.90
2022-10-05T15:12:31.294Z,3.80
2022-10-05T15:15:03.150Z,4.25
2022-10-05T15:17:35.599Z,4.10
2022-10-05T15:20:06.108Z,3.95
2022-10-05T15:22:41.212Z,4.40
2022-10-05T15:25:14.364Z,4.00
2022-10-05T15:27:53.867Z,4.28
2022-10-05T15:30:23.365Z,4.28
2022-10-05T15:33:04.315Z,3.92
2022-10-05T15:35:54.193Z,4.30
2022-10-05T15:38:25.737Z,3.95
2022-10-05T15:40:59.738Z,4.55
2022-10-05T15:43:32.667Z,4.22
2022-10-05T15:46:07.118Z,4.57
2022-10-05T15:48:41.107Z,4.35
2022-10-05T15:51:15.337Z,4.75
2022-10-05T15:53:47.450Z,4.40
2022-10-05T15:56:18.404Z,4.35
2022-10-05T15:58:57.686Z,4.13
2022-10-05T16:01:41.000Z,4.60
2022-10-05T16:04:15.109Z,4.32
2022-10-05T16:07:02.430Z,4.20
2022-10-05T16:09:45.490Z,4.63
2022-10-05T16:12:20.395Z,4.15
2022-10-05T16:15:06.660Z,4.25
2022-10-05T16:17:47.927Z,4.60
2022-10-05T16:20:25.476Z,4.10
2022-10-05T16:22:59.413Z,4.22
2022-10-05T16:25:35.807Z,3.60
2022-10-05T16:28:12.079Z,3.92
2022-10-05T16:30:45.166Z,3.80
2022-10-05T16:33:20.095Z,3.92
2022-10-05T16:35:53.736Z,3.65
2022-10-05T16:38:27.938Z,4.50
2022-10-05T16:41:02.209Z,3.53
2022-10-05T16:43:36.640Z,4.10
2022-10-05T16:46:10.356Z,3.78
2022-10-05T16:48:46.550Z,4.38
2022-10-05T16:51:21.607Z,3.60
2022-10-05T16:53:52.977Z,4.40
2022-10-05T16:56:25.063Z,4.20
2022-10-05T16:58:58.269Z,4.45
2022-10-05T17:01:41.943Z,4.15
2022-10-05T17:04:18.145Z,4.43
2022-10-05T17:06:53.918Z,4.72
2022-10-05T17:09:40.217Z,4.53
2022-10-05T17:12:15.540Z,4.13
2022-10-05T17:14:51.245Z,4.50
2022-10-05T17:17:29.541Z,4.50
2022-10-05T17:20:05.386Z,5.80
2022-10-05T17:22:39.511Z,5.85
2022-10-05T17:25:11.466Z,5.63
2022-10-05T17:27:52.130Z,5.05
2022-10-05T17:30:23.416Z,4.57
2022-10-05T17:33:04.629Z,6.10
2022-10-05T17:35:51.727Z,6.45
2022-10-05T17:38:21.671Z,8.43
2022-10-05T17:41:06.131Z,7.03
2022-10-05T17:43:34.927Z,5.90
2022-10-05T17:46:04.011Z,5.30
2022-10-05T17:48:54.114Z,4.93
2022-10-05T17:51:51.245Z,5.75
2022-10-05T17:54:39.884Z,6.40
2022-10-05T17:57:17.640Z,6.05
2022-10-05T17:59:48.973Z,6.00
2022-10-05T18:02:21.959Z,5.90
2022-10-05T18:04:52.093Z,5.32
2022-10-05T18:07:21.894Z,5.13
2022-10-05T18:09:58.801Z,5.60
2022-10-05T18:12:46.997Z,5.60
2022-10-05T18:15:31.109Z,4.53
2022-10-05T18:18:20.009Z,4.47
2022-10-05T18:21:03.193Z,5.05
2022-10-05T18:23:35.975Z,5.30
2022-10-05T18:26:20.572Z,8.65
2022-10-05T18:28:56.589Z,11.30
2022-10-05T18:31:29.866Z,4.95
2022-10-05T18:34:02.299Z,4.82
2022-10-05T18:36:40.121Z,5.75
2022-10-05T18:39:15.073Z,5.55
2022-10-05T18:41:50.865Z,4.85
2022-10-05T18:44:27.686Z,4.15
2022-10-05T18:47:01.197Z,4.35
2022-10-05T18:49:41.232Z,4.38
2022-10-05T18:52:13.401Z,7.88
2022-10-05T18:54:48.314Z,4.82
2022-10-05T18:57:34.201Z,5.82
2022-10-05T19:00:03.913Z,6.00
2022-10-05T19:02:36.437Z,6.72
2022-10-05T19:05:23.783Z,5.47
2022-10-05T19:08:03.361Z,7.72
2022-10-05T19:10:37.140Z,5.25
2022-10-05T19:13:12.345Z,3.47
2022-10-05T19:15:44.299Z,4.88
2022-10-05T19:18:22.716Z,4.43
2022-10-05T19:20:53.809Z,3.95
2022-10-05T19:23:39.889Z,4.35
2022-10-05T19:26:13.737Z,4.55
2022-10-05T19:28:49.583Z,3.83
2022-10-05T19:31:24.452Z,5.10
2022-10-05T19:33:59.867Z,3.45
2022-10-05T19:36:34.484Z,3.38
2022-10-05T19:39:05.031Z,3.30
2022-10-05T19:41:38.902Z,3.40
2022-10-05T19:44:13.376Z,3.03
2022-10-05T19:46:49.980Z,3.45
2022-10-05T19:49:33.173Z,2.92
2022-10-05T19:52:02.092Z,3.40
2022-10-05T19:54:30.426Z,2.58
2022-10-05T19:56:59.778Z,2.92
2022-10-05T19:59:31.710Z,3.20
2022-10-05T20:02:02.362Z,2.75
2022-10-05T20:04:36.033Z,2.70
2022-10-05T20:07:04.461Z,2.55
2022-10-05T20:09:50.394Z,2.95
2022-10-05T20:12:18.705Z,2.70
2022-10-05T20:15:02.301Z,2.35
2022-10-05T20:17:48.728Z,2.78
2022-10-05T20:20:24.594Z,2.20
2022-10-05T20:22:53.124Z,2.28
2022-10-05T20:25:31.653Z,2.30
2022-10-05T20:28:00.047Z,2.53
2022-10-05T20:30:31.533Z,2.38
2022-10-05T20:33:01.440Z,2.05
2022-10-05T20:35:30.597Z,2.78
2022-10-05T20:38:00.288Z,2.20
2022-10-05T20:40:29.171Z,2.50
2022-10-05T20:42:57.779Z,2.33
2022-10-05T20:45:26.225Z,1.95
2022-10-05T20:47:55.860Z,2.45
2022-10-05T20:50:24.405Z,2.35
2022-10-05T20:52:52.959Z,2.53
2022-10-05T20:55:21.655Z,2.22
2022-10-05T20:57:49.933Z,2.72
2022-10-05T21:00:18.264Z,2.40
2022-10-05T21:02:46.747Z,2.20
2022-10-05T21:05:18.010Z,2.25
2022-10-05T21:07:46.691Z,2.35
2022-10-05T21:10:15.090Z,2.40
2022-10-05T21:12:43.678Z,2.50
2022-10-05T21:15:12.469Z,2.60
2022-10-05T21:17:40.749Z,2.53
2022-10-05T21:20:11.490Z,2.35
2022-10-05T21:22:41.827Z,2.30
2022-10-05T21:25:10.475Z,2.60
2022-10-05T21:27:38.771Z,2.80
2022-10-05T21:30:07.573Z,2.70
2022-10-05T21:32:37.677Z,2.65
2022-10-05T21:35:09.324Z,2.83
2022-10-05T21:37:37.636Z,2.50
2022-10-05T21:40:07.745Z,2.33
2022-10-05T21:42:36.056Z,2.60
2022-10-05T21:45:04.378Z,2.90
2022-10-05T21:47:33.524Z,2.80
2022-10-05T21:50:03.614Z,2.42
2022-10-05T21:52:32.631Z,2.55
2022-10-05T21:55:00.987Z,2.90
2022-10-05T21:57:30.642Z,2.60
2022-10-05T21:59:58.961Z,2.60
2022-10-05T22:02:27.243Z,2.70
2022-10-05T22:04:57.717Z,2.78
2022-10-05T22:07:26.068Z,2.53
2022-10-05T22:09:54.370Z,2.95
2022-10-05T22:12:24.321Z,2.83
2022-10-05T22:14:53.967Z,2.80
2022-10-05T22:17:24.807Z,3.22
2022-10-05T22:19:53.201Z,2.70
2022-10-05T22:22:21.892Z,2.60
2022-10-05T22:24:50.179Z,3.20
2022-10-05T22:27:18.519Z,2.95
2022-10-05T22:29:46.849Z,3.00
2022-10-05T22:32:16.713Z,2.97
2022-10-05T22:34:45.037Z,3.40
2022-10-05T22:37:14.172Z,3.15
2022-10-05T22:39:42.833Z,3.30
2022-10-05T22:42:11.623Z,3.10
2022-10-05T22:44:40.230Z,3.33
2022-10-05T22:47:08.512Z,3.40
2022-10-05T22:49:38.152Z,2.80
2022-10-05T22:52:06.454Z,3.30
2022-10-05T22:54:37.286Z,3.20
2022-10-05T22:57:05.824Z,3.13
2022-10-05T22:59:34.418Z,3.20
2022-10-05T23:02:03.008Z,2.95
2022-10-05T23:04:31.372Z,2.97
2022-10-05T23:07:01.082Z,3.33
2022-10-05T23:09:29.634Z,3.08
2022-10-05T23:11:58.101Z,3.65
2022-10-05T23:14:26.893Z,3.45
2022-10-05T23:16:55.209Z,3.40
2022-10-05T23:19:23.631Z,3.38
2022-10-05T23:21:51.942Z,3.40
2022-10-05T23:24:21.580Z,3.20
2022-10-05T23:26:49.866Z,3.53
2022-10-05T23:29:18.154Z,3.33
2022-10-05T23:31:46.472Z,3.53
2022-10-05T23:34:14.740Z,3.58
2022-10-05T23:36:43.029Z,3.30
2022-10-05T23:39:11.544Z,3.58
2022-10-05T23:41:43.165Z,3.45
2022-10-05T23:44:12.627Z,3.13
2022-10-05T23:46:40.917Z,3.35
2022-10-05T23:49:09.200Z,3.30
2022-10-05T23:51:37.725Z,3.28
2022-10-05T23:54:06.151Z,3.85
2022-10-05T23:56:34.486Z,2.97
2022-10-05T23:59:04.102Z,3.63
